createdAt,value
2022-12-18T00:00:05.027Z,80.53
2022-12-18T00:01:05.268Z,80.53
2022-12-18T00:02:05.114Z,80.94
2022-12-18T00:03:05.344Z,80.94
2022-12-18T00:04:05.105Z,80.74
2022-12-18T00:05:05.223Z,81.16
2022-12-18T00:06:05.111Z,80.53
2022-12-18T00:07:05.208Z,79.58
2022-12-18T00:08:04.458Z,78.99
2022-12-18T00:09:05.159Z,79.62
2022-12-18T00:10:05.068Z,79.72
2022-12-18T00:11:07.014Z,79.62
2022-12-18T00:13:08.308Z,80.57
2022-12-18T00:14:05.019Z,80.57
2022-12-18T00:15:04.909Z,81.09
2022-12-18T00:16:05.044Z,80.25
2022-12-18T00:17:05.078Z,79.72
2022-12-18T00:18:05.059Z,80.04
2022-12-18T00:19:04.928Z,80.88
2022-12-18T00:20:05.164Z,80.15
2022-12-18T00:21:04.887Z,80.88
2022-12-18T00:22:04.949Z,81.37
2022-12-18T00:23:04.898Z,81.26
2022-12-18T00:24:05.157Z,80.74
2022-12-18T00:25:04.957Z,80.63
2022-12-18T00:26:04.688Z,79.48
2022-12-18T00:27:04.918Z,80.74
2022-12-18T00:28:04.733Z,81.05
2022-12-18T00:29:05.640Z,80.63
2022-12-18T00:30:04.927Z,80.42
2022-12-18T00:31:05.100Z,80.94
2022-12-18T00:32:04.811Z,81.37
2022-12-18T00:33:04.928Z,81.37
2022-12-18T00:34:04.737Z,81.05
2022-12-18T00:35:04.888Z,81.26
2022-12-18T00:36:04.687Z,79.90
2022-12-18T00:37:04.878Z,79.79
2022-12-18T00:38:04.688Z,81.05
2022-12-18T00:39:04.838Z,80.63
2022-12-18T00:40:04.808Z,81.68
2022-12-18T00:41:04.678Z,81.68
2022-12-18T00:42:04.887Z,81.57
2022-12-18T00:43:04.589Z,81.05
2022-12-18T00:44:04.698Z,81.64
2022-12-18T00:45:10.661Z,81.23
2022-12-18T00:46:04.714Z,78.74
2022-12-18T00:47:04.647Z,80.42
2022-12-18T00:48:04.819Z,81.16
2022-12-18T00:49:04.538Z,81.64
2022-12-18T00:50:04.649Z,81.01
2022-12-18T00:51:04.577Z,80.91
2022-12-18T00:52:04.697Z,80.60
2022-12-18T00:53:04.599Z,79.65
2022-12-18T00:54:04.627Z,80.38
2022-12-18T00:55:06.488Z,80.28
2022-12-18T00:56:04.619Z,79.13
2022-12-18T00:57:04.619Z,80.60
2022-12-18T00:58:04.460Z,80.80
2022-12-18T00:59:04.569Z,79.13
2022-12-18T01:00:04.559Z,80.38
2022-12-18T01:01:04.690Z,81.12
2022-12-18T01:02:04.519Z,80.91
2022-12-18T01:03:04.590Z,80.66
2022-12-18T01:04:04.438Z,81.29
2022-12-18T01:05:04.637Z,80.24
2022-12-18T01:06:04.599Z,81.67
2022-12-18T01:07:04.509Z,81.53
2022-12-18T01:08:04.428Z,78.81
2022-12-18T01:09:04.517Z,78.70
2022-12-18T01:10:04.408Z,77.52
2022-12-18T01:11:04.567Z,75.98
2022-12-18T01:12:04.472Z,77.66
2022-12-18T01:13:04.518Z,76.96
2022-12-18T01:14:04.599Z,77.38
2022-12-18T01:15:04.267Z,77.28
2022-12-18T01:16:04.518Z,77.91
2022-12-18T01:17:04.358Z,78.64
2022-12-18T01:18:04.447Z,78.85
2022-12-18T01:19:04.258Z,78.25
2022-12-18T01:20:04.479Z,78.15
2022-12-18T01:21:04.248Z,78.36
2022-12-18T01:22:04.367Z,78.46
2022-12-18T01:23:04.398Z,78.88
2022-12-18T01:24:04.338Z,79.83
2022-12-18T01:25:04.318Z,80.14
2022-12-18T01:26:04.439Z,79.75
2022-12-18T01:27:04.320Z,79.44
2022-12-18T01:28:04.157Z,80.18
2022-12-18T01:29:04.267Z,79.79
2022-12-18T01:30:04.130Z,80.11
2022-12-18T01:31:04.288Z,81.05
2022-12-18T01:32:04.117Z,81.23
2022-12-18T01:33:04.367Z,80.70
2022-12-18T01:34:04.322Z,80.38
2022-12-18T01:35:04.177Z,80.91
2022-12-18T01:36:04.317Z,80.80
2022-12-18T01:37:04.268Z,80.00
2022-12-18T01:38:04.119Z,78.96
2022-12-18T01:39:04.178Z,79.30
2022-12-18T01:40:04.385Z,79.93
2022-12-18T01:41:04.328Z,80.91
2022-12-18T01:42:04.169Z,82.14
2022-12-18T01:43:04.000Z,81.34
2022-12-18T01:44:04.078Z,82.07
2022-12-18T01:45:03.970Z,82.07
2022-12-18T01:46:04.261Z,82.39
2022-12-18T01:47:04.078Z,83.18
2022-12-18T01:48:04.258Z,81.99
2022-12-18T01:49:03.948Z,80.21
2022-12-18T01:50:04.140Z,80.21
2022-12-18T01:51:03.928Z,81.16
2022-12-18T01:52:04.068Z,80.53
2022-12-18T01:53:03.998Z,80.42
2022-12-18T01:54:04.148Z,80.63
2022-12-18T01:55:03.898Z,79.58
2022-12-18T01:56:04.117Z,79.79
2022-12-18T01:57:03.928Z,80.74
2022-12-18T01:58:04.048Z,80.32
2022-12-18T01:59:03.918Z,80.15
2022-12-18T02:00:03.797Z,80.77
2022-12-18T02:01:04.053Z,81.20
2022-12-18T02:02:03.939Z,80.77
2022-12-18T02:03:04.020Z,80.57
2022-12-18T02:04:03.789Z,80.88
2022-12-18T02:05:03.937Z,80.71
2022-12-18T02:06:03.949Z,80.81
2022-12-18T02:07:04.478Z,81.69
2022-12-18T02:08:03.868Z,81.62
2022-12-18T02:09:03.879Z,82.14
2022-12-18T02:10:03.797Z,82.71
2022-12-18T02:11:03.839Z,82.60
2022-12-18T02:12:03.787Z,83.59
2022-12-18T02:13:03.829Z,84.95
2022-12-18T02:14:03.828Z,83.80
2022-12-18T02:15:03.579Z,83.37
2022-12-18T02:16:03.736Z,82.75
2022-12-18T02:17:03.687Z,83.27
2022-12-18T02:18:03.800Z,84.60
2022-12-18T02:19:03.679Z,83.97
2022-12-18T02:20:03.834Z,84.08
2022-12-18T02:21:03.700Z,84.08
2022-12-18T02:22:03.929Z,83.59
2022-12-18T02:23:03.578Z,83.90
2022-12-18T02:24:03.718Z,85.55
2022-12-18T02:25:03.678Z,86.70
2022-12-18T02:26:03.788Z,86.77
2022-12-18T02:27:03.827Z,84.42
2022-12-18T02:28:03.738Z,83.79
2022-12-18T02:29:03.629Z,82.95
2022-12-18T02:30:03.489Z,82.63
2022-12-18T02:31:03.727Z,81.30
2022-12-18T02:32:03.639Z,81.83
2022-12-18T02:33:03.568Z,82.25
2022-12-18T02:34:03.498Z,82.35
2022-12-18T02:35:03.598Z,83.30
2022-12-18T02:36:03.620Z,82.46
2022-12-18T02:37:03.778Z,83.40
2022-12-18T02:38:03.638Z,82.04
2022-12-18T02:39:03.569Z,82.04
2022-12-18T02:40:03.567Z,81.41
2022-12-18T02:41:03.609Z,81.62
2022-12-18T02:42:03.528Z,82.35
2022-12-18T02:43:03.568Z,82.39
2022-12-18T02:44:03.447Z,82.98
2022-12-18T02:45:03.498Z,82.14
2022-12-18T02:46:03.605Z,81.83
2022-12-18T02:47:03.486Z,81.55
2022-12-18T02:48:03.457Z,81.76
2022-12-18T02:49:03.357Z,82.29
2022-12-18T02:50:03.509Z,82.39
2022-12-18T02:51:03.256Z,82.11
2022-12-18T02:52:03.438Z,82.53
2022-12-18T02:53:03.377Z,83.48
2022-12-18T02:54:03.407Z,84.11
2022-12-18T02:55:03.389Z,83.48
2022-12-18T02:56:03.429Z,83.48
2022-12-18T02:57:03.417Z,82.85
2022-12-18T02:58:03.450Z,82.53
2022-12-18T02:59:03.338Z,81.80
2022-12-18T03:00:03.528Z,82.22
2022-12-18T03:01:03.356Z,83.17
2022-12-18T03:02:03.518Z,82.43
2022-12-18T03:03:03.549Z,82.32
2022-12-18T03:04:03.139Z,82.01
2022-12-18T03:05:03.249Z,81.31
2022-12-18T03:06:03.188Z,81.94
2022-12-18T03:07:03.478Z,82.15
2022-12-18T03:08:03.399Z,82.04
2022-12-18T03:09:03.462Z,82.36
2022-12-18T03:10:03.109Z,82.26
2022-12-18T03:11:03.229Z,82.36
2022-12-18T03:12:03.178Z,82.04
2022-12-18T03:13:03.337Z,82.36
2022-12-18T03:14:03.069Z,81.98
2022-12-18T03:15:03.168Z,82.50
2022-12-18T03:16:03.166Z,82.19
2022-12-18T03:17:02.991Z,82.40
2022-12-18T03:18:03.307Z,82.71
2022-12-18T03:19:03.128Z,83.66
2022-12-18T03:20:03.240Z,84.33
2022-12-18T03:21:03.047Z,84.01
2022-12-18T03:22:03.151Z,84.01
2022-12-18T03:23:03.148Z,84.12
2022-12-18T03:24:03.107Z,83.81
2022-12-18T03:25:02.948Z,84.23
2022-12-18T03:26:07.335Z,84.12
2022-12-18T03:27:02.968Z,84.12
2022-12-18T03:28:03.109Z,84.05
2022-12-18T03:29:03.008Z,84.27
2022-12-18T03:30:03.037Z,84.79
2022-12-18T03:31:02.974Z,84.16
2022-12-18T03:32:02.969Z,83.84
2022-12-18T03:33:03.049Z,83.84
2022-12-18T03:34:02.818Z,84.30
2022-12-18T03:35:02.968Z,84.72
2022-12-18T03:36:02.818Z,84.47
2022-12-18T03:37:03.048Z,84.41
2022-12-18T03:38:02.974Z,84.20
2022-12-18T03:39:03.079Z,84.02
2022-12-18T03:40:02.904Z,84.34
2022-12-18T03:41:02.906Z,84.87
2022-12-18T03:42:02.768Z,85.14
2022-12-18T03:43:03.027Z,85.25
2022-12-18T03:44:02.868Z,85.36
2022-12-18T03:45:02.888Z,85.46
2022-12-18T03:46:02.889Z,84.94
2022-12-18T03:47:02.858Z,85.14
2022-12-18T03:48:02.909Z,84.62
2022-12-18T03:49:02.728Z,84.41
2022-12-18T03:50:06.082Z,84.94
2022-12-18T03:51:02.601Z,84.52
2022-12-18T03:52:02.957Z,84.83
2022-12-18T03:53:02.677Z,85.46
2022-12-18T03:54:02.867Z,86.20
2022-12-18T03:55:02.750Z,85.78
2022-12-18T03:56:02.757Z,85.04
2022-12-18T03:57:02.673Z,84.30
2022-12-18T03:58:02.747Z,83.98
2022-12-18T03:59:02.837Z,84.09
2022-12-18T04:00:02.686Z,83.25
2022-12-18T04:01:02.608Z,82.93
2022-12-18T04:02:02.964Z,82.86
2022-12-18T04:03:02.820Z,82.97
2022-12-18T04:04:02.607Z,82.97
2022-12-18T04:05:02.709Z,83.29
2022-12-18T04:06:02.529Z,83.39
2022-12-18T04:07:02.697Z,83.92
2022-12-18T04:08:02.618Z,84.23
2022-12-18T04:09:02.702Z,84.87
2022-12-18T04:10:02.627Z,84.66
2022-12-18T04:11:02.627Z,83.92
2022-12-18T04:12:02.488Z,83.50
2022-12-18T04:13:02.607Z,84.13
2022-12-18T04:14:06.942Z,84.38
2022-12-18T04:15:02.822Z,84.06
2022-12-18T04:16:02.604Z,84.27
2022-12-18T04:17:02.637Z,84.69
2022-12-18T04:18:02.489Z,84.06
2022-12-18T04:19:02.617Z,84.59
2022-12-18T04:20:02.510Z,84.48
2022-12-18T04:21:02.452Z,84.48
2022-12-18T04:22:02.547Z,84.17
2022-12-18T04:23:02.550Z,84.17
2022-12-18T04:24:02.510Z,83.95
2022-12-18T04:25:02.517Z,84.38
2022-12-18T04:26:02.510Z,84.48
2022-12-18T04:27:02.368Z,84.48
2022-12-18T04:28:02.469Z,84.27
2022-12-18T04:29:02.359Z,84.38
2022-12-18T04:30:02.488Z,85.22
2022-12-18T04:31:02.475Z,84.69
2022-12-18T04:32:02.403Z,84.38
2022-12-18T04:33:02.389Z,84.31
2022-12-18T04:34:02.379Z,84.42
2022-12-18T04:35:02.370Z,84.42
2022-12-18T04:36:01.646Z,84.63
2022-12-18T04:37:02.317Z,84.74
2022-12-18T04:38:02.188Z,84.74
2022-12-18T04:39:02.318Z,84.42
2022-12-18T04:40:02.244Z,84.42
2022-12-18T04:41:02.318Z,83.89
2022-12-18T04:42:02.239Z,84.31
2022-12-18T04:43:02.504Z,84.74
2022-12-18T04:44:02.187Z,84.63
2022-12-18T04:45:02.317Z,84.31
2022-12-18T04:46:02.350Z,84.20
2022-12-18T04:47:02.378Z,83.89
2022-12-18T04:48:02.188Z,84.14
2022-12-18T04:49:02.268Z,84.35
2022-12-18T04:50:02.198Z,84.35
2022-12-18T04:51:02.198Z,84.20
2022-12-18T04:52:02.398Z,84.35
2022-12-18T04:53:01.979Z,84.35
2022-12-18T04:54:02.278Z,84.35
2022-12-18T04:55:01.998Z,84.24
2022-12-18T04:56:02.211Z,83.82
2022-12-18T04:57:02.073Z,84.14
2022-12-18T04:58:02.297Z,84.67
2022-12-18T04:59:02.037Z,84.35
2022-12-18T05:00:02.217Z,84.35
2022-12-18T05:01:01.967Z,84.56
2022-12-18T05:02:02.347Z,84.14
2022-12-18T05:03:02.088Z,83.82
2022-12-18T05:04:02.263Z,83.61
2022-12-18T05:05:01.999Z,83.61
2022-12-18T05:06:02.099Z,83.72
2022-12-18T05:07:02.187Z,83.86
2022-12-18T05:08:02.116Z,84.14
2022-12-18T05:09:02.077Z,84.91
2022-12-18T05:10:02.078Z,85.66
2022-12-18T05:11:02.088Z,84.91
2022-12-18T05:12:01.957Z,84.49
2022-12-18T05:13:02.052Z,83.93
2022-12-18T05:14:01.890Z,83.61
2022-12-18T05:15:02.060Z,84.03
2022-12-18T05:16:01.990Z,83.44
2022-12-18T05:17:02.048Z,82.80
2022-12-18T05:18:01.943Z,82.91
2022-12-18T05:19:01.962Z,83.54
2022-12-18T05:20:01.838Z,83.44
2022-12-18T05:21:02.099Z,82.38
2022-12-18T05:22:01.928Z,82.28
2022-12-18T05:23:01.918Z,82.59
2022-12-18T05:24:01.950Z,82.80
2022-12-18T05:25:02.019Z,82.59
2022-12-18T05:26:01.858Z,82.84
2022-12-18T05:27:01.809Z,83.15
2022-12-18T05:28:01.869Z,83.26
2022-12-18T05:29:01.831Z,83.72
2022-12-18T05:30:01.918Z,83.40
2022-12-18T05:31:01.908Z,83.51
2022-12-18T05:32:01.988Z,83.62
2022-12-18T05:33:01.781Z,83.40
2022-12-18T05:34:02.028Z,83.72
2022-12-18T05:35:01.898Z,83.72
2022-12-18T05:36:01.992Z,83.97
2022-12-18T05:37:01.799Z,84.08
2022-12-18T05:38:01.790Z,84.29
2022-12-18T05:39:01.827Z,84.39
2022-12-18T05:40:01.939Z,83.97
2022-12-18T05:41:01.839Z,83.65
2022-12-18T05:42:01.881Z,83.65
2022-12-18T05:43:01.658Z,83.97
2022-12-18T05:44:01.516Z,84.19
2022-12-18T05:45:01.802Z,84.50
2022-12-18T05:46:01.618Z,84.86
2022-12-18T05:47:01.774Z,84.96
2022-12-18T05:48:01.578Z,85.28
2022-12-18T05:49:01.868Z,85.14
2022-12-18T05:50:01.598Z,85.24
2022-12-18T05:51:01.820Z,84.92
2022-12-18T05:52:01.647Z,84.82
2022-12-18T05:53:01.683Z,84.92
2022-12-18T05:54:01.627Z,85.46
2022-12-18T05:55:01.640Z,85.71
2022-12-18T05:56:01.657Z,86.23
2022-12-18T05:57:01.747Z,86.34
2022-12-18T05:58:01.639Z,86.19
2022-12-18T05:59:01.537Z,86.19
2022-12-18T06:00:01.581Z,86.09
2022-12-18T06:01:01.338Z,85.77
2022-12-18T06:02:01.723Z,85.56
2022-12-18T06:03:01.601Z,85.24
2022-12-18T06:04:01.655Z,85.56
2022-12-18T06:05:01.489Z,85.46
2022-12-18T06:06:01.608Z,84.75
2022-12-18T06:07:01.351Z,85.17
2022-12-18T06:08:01.548Z,85.07
2022-12-18T06:09:01.349Z,85.39
2022-12-18T06:10:01.598Z,85.91
2022-12-18T06:11:01.356Z,85.81
2022-12-18T06:12:01.648Z,85.07
2022-12-18T06:13:01.369Z,85.07
2022-12-18T06:14:01.608Z,84.12
2022-12-18T06:15:01.499Z,84.33
2022-12-18T06:16:01.458Z,84.39
2022-12-18T06:17:01.342Z,83.97
2022-12-18T06:18:01.187Z,83.65
2022-12-18T06:19:01.559Z,83.23
2022-12-18T06:20:01.281Z,83.02
2022-12-18T06:21:01.417Z,82.92
2022-12-18T06:22:01.347Z,83.23
2022-12-18T06:23:01.456Z,82.85
2022-12-18T06:24:01.373Z,82.49
2022-12-18T06:25:01.496Z,82.42
2022-12-18T06:26:01.328Z,82.85
2022-12-18T06:27:01.477Z,82.85
2022-12-18T06:28:01.357Z,83.06
2022-12-18T06:29:01.288Z,83.69
2022-12-18T06:30:01.208Z,83.91
2022-12-18T06:31:01.307Z,83.59
2022-12-18T06:32:01.341Z,83.27
2022-12-18T06:33:01.269Z,82.95
2022-12-18T06:34:01.189Z,83.06
2022-12-18T06:35:01.120Z,82.64
2022-12-18T06:36:01.405Z,83.06
2022-12-18T06:37:01.246Z,83.48
2022-12-18T06:38:01.207Z,83.91
2022-12-18T06:39:01.127Z,84.01
2022-12-18T06:40:01.187Z,83.59
2022-12-18T06:41:01.137Z,83.27
2022-12-18T06:42:01.140Z,83.80
2022-12-18T06:43:01.277Z,83.37
2022-12-18T06:44:01.258Z,82.78
2022-12-18T06:45:01.001Z,82.35
2022-12-18T06:46:01.331Z,82.89
2022-12-18T06:47:01.198Z,82.89
2022-12-18T06:48:01.150Z,82.67
2022-12-18T06:49:01.011Z,84.69
2022-12-18T06:50:00.898Z,84.26
2022-12-18T06:51:01.038Z,83.31
2022-12-18T06:52:00.977Z,83.45
2022-12-18T06:53:01.248Z,84.19
2022-12-18T06:54:00.858Z,84.41
2022-12-18T06:55:01.022Z,84.83
2022-12-18T06:56:05.093Z,86.06
2022-12-18T06:57:01.048Z,86.27
2022-12-18T06:58:01.008Z,85.71
2022-12-18T06:59:00.967Z,84.44
2022-12-18T07:00:00.946Z,84.22
2022-12-18T07:01:01.191Z,84.16
2022-12-18T07:02:01.039Z,84.16
2022-12-18T07:03:00.988Z,85.00
2022-12-18T07:04:01.069Z,84.89
2022-12-18T07:05:02.761Z,84.58
2022-12-18T07:06:00.908Z,84.22
2022-12-18T07:07:00.718Z,84.54
2022-12-18T07:08:00.847Z,84.22
2022-12-18T07:09:00.868Z,84.01
2022-12-18T07:10:00.998Z,83.80
2022-12-18T07:11:00.727Z,83.59
2022-12-18T07:12:00.858Z,84.16
2022-12-18T07:13:00.709Z,84.86
2022-12-18T07:14:00.918Z,84.86
2022-12-18T07:15:00.777Z,84.22
2022-12-18T07:16:01.061Z,83.09
2022-12-18T07:17:00.915Z,83.03
2022-12-18T07:18:00.858Z,83.56
2022-12-18T07:19:00.780Z,83.87
2022-12-18T07:20:00.966Z,83.87
2022-12-18T07:21:00.908Z,83.98
2022-12-18T07:22:00.869Z,83.84
2022-12-18T07:23:00.823Z,83.31
2022-12-18T07:24:00.564Z,83.20
2022-12-18T07:25:00.848Z,83.20
2022-12-18T07:26:00.507Z,83.59
2022-12-18T07:27:00.787Z,83.59
2022-12-18T07:28:00.567Z,84.54
2022-12-18T07:29:00.762Z,84.75
2022-12-18T07:30:00.648Z,84.86
2022-12-18T07:31:00.768Z,84.75
2022-12-18T07:32:00.597Z,84.39
2022-12-18T07:33:00.640Z,84.50
2022-12-18T07:34:00.607Z,84.39
2022-12-18T07:35:00.807Z,84.39
2022-12-18T07:36:00.668Z,84.46
2022-12-18T07:37:00.676Z,84.99
2022-12-18T07:38:00.521Z,84.46
2022-12-18T07:39:00.637Z,84.11
2022-12-18T07:40:01.618Z,83.90
2022-12-18T07:41:00.480Z,84.00
2022-12-18T07:42:00.567Z,83.26
2022-12-18T07:43:00.408Z,83.05
2022-12-18T07:44:00.726Z,83.58
2022-12-18T07:45:00.366Z,83.26
2022-12-18T07:46:00.658Z,83.15
2022-12-18T07:47:00.478Z,82.80
2022-12-18T07:48:00.547Z,83.01
2022-12-18T07:49:00.527Z,82.59
2022-12-18T07:50:00.499Z,82.91
2022-12-18T07:51:00.497Z,82.76
2022-12-18T07:52:00.587Z,82.76
2022-12-18T07:53:00.428Z,82.76
2022-12-18T07:54:00.507Z,82.94
2022-12-18T07:54:59.648Z,82.31
2022-12-18T07:56:26.086Z,81.88
2022-12-18T07:57:00.429Z,83.53
2022-12-18T07:58:01.338Z,83.39
2022-12-18T07:59:00.694Z,81.60
2022-12-18T08:00:00.268Z,81.14
2022-12-18T08:01:00.569Z,83.00
2022-12-18T08:02:00.562Z,82.29
2022-12-18T08:03:00.626Z,79.66
2022-12-18T08:04:00.227Z,77.62
2022-12-18T08:05:00.372Z,76.47
2022-12-18T08:06:00.266Z,75.24
2022-12-18T08:07:00.438Z,77.56
2022-12-18T08:07:59.568Z,79.56
2022-12-18T08:09:00.347Z,77.94
2022-12-18T08:10:00.238Z,76.68
2022-12-18T08:11:00.258Z,76.29
2022-12-18T08:12:00.269Z,77.10
2022-12-18T08:13:04.643Z,76.79
2022-12-18T08:14:00.258Z,77.21
2022-12-18T08:15:00.049Z,76.57
2022-12-18T08:15:59.947Z,77.21
2022-12-18T08:17:00.142Z,76.47
2022-12-18T08:18:00.488Z,76.12
2022-12-18T08:19:00.073Z,76.54
2022-12-18T08:20:00.367Z,76.93
2022-12-18T08:21:00.079Z,77.94
2022-12-18T08:22:00.219Z,75.91
2022-12-18T08:23:00.147Z,74.83
2022-12-18T08:24:00.262Z,73.04
2022-12-18T08:25:00.135Z,73.71
2022-12-18T08:26:00.218Z,73.05
2022-12-18T08:27:28.320Z,71.86
2022-12-18T08:28:00.749Z,70.61
2022-12-18T08:29:00.127Z,69.64
2022-12-18T08:29:59.952Z,67.90
2022-12-18T08:31:00.201Z,67.76
2022-12-18T08:32:00.136Z,68.80
2022-12-18T08:33:00.148Z,68.25
2022-12-18T08:34:00.103Z,66.19
2022-12-18T08:35:00.112Z,66.61
2022-12-18T08:35:59.953Z,67.10
2022-12-18T08:37:00.027Z,68.04
2022-12-18T08:37:59.878Z,66.58
2022-12-18T08:39:00.148Z,65.46
2022-12-18T08:40:00.188Z,67.73
2022-12-18T08:41:00.128Z,64.80
2022-12-18T08:42:00.071Z,64.01
2022-12-18T08:43:00.097Z,65.56
2022-12-18T08:43:59.988Z,61.05
2022-12-18T08:44:59.951Z,61.21
2022-12-18T08:46:00.055Z,58.26
2022-12-18T08:46:59.868Z,59.38
2022-12-18T08:47:59.988Z,59.01
2022-12-18T08:48:59.838Z,57.53
2022-12-18T08:49:59.996Z,57.51
2022-12-18T08:50:59.939Z,57.97
2022-12-18T08:52:00.709Z,54.73
2022-12-18T08:52:59.229Z,55.74
2022-12-18T08:53:59.919Z,54.27
2022-12-18T08:54:59.920Z,52.92
2022-12-18T08:55:59.978Z,51.73
2022-12-18T08:56:59.808Z,52.69
2022-12-18T08:57:59.948Z,52.79
2022-12-18T08:58:59.898Z,55.58
2022-12-18T08:59:59.906Z,52.25
2022-12-18T09:00:59.897Z,55.20
2022-12-18T09:01:59.757Z,52.38
2022-12-18T09:02:59.124Z,50.98
2022-12-18T09:03:59.597Z,56.16
2022-12-18T09:04:59.798Z,51.70
2022-12-18T09:05:59.741Z,51.83
2022-12-18T09:06:59.778Z,53.49
2022-12-18T09:07:59.659Z,56.81
2022-12-18T09:08:59.754Z,52.76
2022-12-18T09:09:59.633Z,51.67
2022-12-18T09:10:59.779Z,53.77
2022-12-18T09:11:59.660Z,53.41
2022-12-18T09:12:59.698Z,58.62
2022-12-18T09:13:59.587Z,61.07
2022-12-18T09:14:59.681Z,55.66
2022-12-18T09:15:59.630Z,57.59
2022-12-18T09:16:59.772Z,55.74
2022-12-18T09:17:59.668Z,58.16
2022-12-18T09:18:59.449Z,59.51
2022-12-18T09:19:59.609Z,56.88
2022-12-18T09:20:59.559Z,56.57
2022-12-18T09:21:59.619Z,58.00
2022-12-18T09:22:59.599Z,57.35
2022-12-18T09:23:59.588Z,55.69
2022-12-18T09:24:59.449Z,57.59
2022-12-18T09:25:59.619Z,58.78
2022-12-18T09:26:59.447Z,61.23
2022-12-18T09:27:58.808Z,62.27
2022-12-18T09:28:59.029Z,63.55
2022-12-18T09:29:59.660Z,61.71
2022-12-18T09:30:59.592Z,65.25
2022-12-18T09:31:59.548Z,65.98
2022-12-18T09:32:59.818Z,63.37
2022-12-18T09:33:59.409Z,64.23
2022-12-18T09:34:59.550Z,64.47
2022-12-18T09:36:00.369Z,63.85
2022-12-18T09:36:59.729Z,66.66
2022-12-18T09:37:58.680Z,64.37
2022-12-18T09:39:03.733Z,65.00
2022-12-18T09:39:59.231Z,64.82
2022-12-18T09:41:00.680Z,64.79
2022-12-18T09:41:59.308Z,64.22
2022-12-18T09:42:59.508Z,67.46
2022-12-18T09:43:59.318Z,66.47
2022-12-18T09:44:59.587Z,67.52
2022-12-18T09:45:59.413Z,67.83
2022-12-18T09:46:59.443Z,69.16
2022-12-18T09:47:59.299Z,66.37
2022-12-18T09:48:59.112Z,67.31
2022-12-18T09:49:59.369Z,69.51
2022-12-18T09:50:59.158Z,69.64
2022-12-18T09:51:59.267Z,68.49
2022-12-18T09:52:59.259Z,70.24
2022-12-18T09:53:59.366Z,72.12
2022-12-18T09:54:59.167Z,70.73
2022-12-18T09:55:59.277Z,68.95
2022-12-18T09:56:59.130Z,70.52
2022-12-18T09:57:58.461Z,68.43
2022-12-18T09:58:59.358Z,69.37
2022-12-18T09:59:59.291Z,68.25
2022-12-18T10:00:59.160Z,70.03
2022-12-18T10:01:59.335Z,71.56
2022-12-18T10:02:59.340Z,69.47
2022-12-18T10:03:59.045Z,69.15
2022-12-18T10:04:59.729Z,71.31
2022-12-18T10:05:59.228Z,70.76
2022-12-18T10:07:01.090Z,69.85
2022-12-18T10:07:59.309Z,70.13
2022-12-18T10:08:59.499Z,72.71
2022-12-18T10:09:59.346Z,71.53
2022-12-18T10:11:00.344Z,70.20
2022-12-18T10:11:59.139Z,70.24
2022-12-18T10:13:04.321Z,71.59
2022-12-18T10:13:59.046Z,71.25
2022-12-18T10:14:58.374Z,69.68
2022-12-18T10:15:58.993Z,70.73
2022-12-18T10:16:59.160Z,71.04
2022-12-18T10:17:58.927Z,71.22
2022-12-18T10:18:59.050Z,69.76
2022-12-18T10:19:58.958Z,70.28
2022-12-18T10:20:59.009Z,70.70
2022-12-18T10:21:59.108Z,70.70
2022-12-18T10:22:58.927Z,69.96
2022-12-18T10:23:58.946Z,69.76
2022-12-18T10:24:58.908Z,69.86
2022-12-18T10:25:58.971Z,71.01
2022-12-18T10:26:58.858Z,70.87
2022-12-18T10:27:59.607Z,69.79
2022-12-18T10:29:05.369Z,70.45
2022-12-18T10:29:59.091Z,68.75
2022-12-18T10:30:58.931Z,69.93
2022-12-18T10:31:58.867Z,69.10
2022-12-18T10:32:58.838Z,68.89
2022-12-18T10:33:59.050Z,70.20
2022-12-18T10:35:00.770Z,70.41
2022-12-18T10:35:58.828Z,70.45
2022-12-18T10:36:58.817Z,71.80
2022-12-18T10:37:58.788Z,73.27
2022-12-18T10:38:58.768Z,73.75
2022-12-18T10:39:59.857Z,72.68
2022-12-18T10:40:58.879Z,71.64
2022-12-18T10:41:58.818Z,71.19
2022-12-18T10:42:58.943Z,71.08
2022-12-18T10:43:58.646Z,70.66
2022-12-18T10:44:58.787Z,70.04
2022-12-18T10:45:58.747Z,70.28
2022-12-18T10:46:58.727Z,71.53
2022-12-18T10:47:59.786Z,70.28
2022-12-18T10:48:58.748Z,70.00
2022-12-18T10:49:58.688Z,69.71
2022-12-18T10:51:13.985Z,71.45
2022-12-18T10:51:58.747Z,72.53
2022-12-18T10:52:58.462Z,74.21
2022-12-18T10:53:58.597Z,73.40
2022-12-18T10:54:58.587Z,74.30
2022-12-18T10:55:58.710Z,76.26
2022-12-18T10:56:58.489Z,76.96
2022-12-18T10:57:59.247Z,74.62
2022-12-18T10:58:58.777Z,73.23
2022-12-18T10:59:58.727Z,73.75
2022-12-18T11:00:58.627Z,74.76
2022-12-18T11:01:58.841Z,74.94
2022-12-18T11:02:58.959Z,71.28
2022-12-18T11:04:02.051Z,71.59
2022-12-18T11:04:58.479Z,72.02
2022-12-18T11:05:58.347Z,72.22
2022-12-18T11:06:58.469Z,73.02
2022-12-18T11:07:58.467Z,70.94
2022-12-18T11:08:58.448Z,71.46
2022-12-18T11:09:58.369Z,70.73
2022-12-18T11:10:58.610Z,70.31
2022-12-18T11:11:58.349Z,70.62
2022-12-18T11:12:58.498Z,70.31
2022-12-18T11:13:58.657Z,70.13
2022-12-18T11:14:57.628Z,70.86
2022-12-18T11:15:58.345Z,70.45
2022-12-18T11:17:24.172Z,71.52
2022-12-18T11:17:59.099Z,71.52
2022-12-18T11:18:58.810Z,71.87
2022-12-18T11:19:58.360Z,73.44
2022-12-18T11:20:58.888Z,73.33
2022-12-18T11:21:58.468Z,73.89
2022-12-18T11:22:58.757Z,73.96
2022-12-18T11:23:59.788Z,73.86
2022-12-18T11:25:30.305Z,73.54
2022-12-18T11:25:59.218Z,72.95
2022-12-18T11:27:00.011Z,73.89
2022-12-18T11:27:58.945Z,74.17
2022-12-18T11:28:58.207Z,74.87
2022-12-18T11:29:58.637Z,74.07
2022-12-18T11:30:58.398Z,74.45
2022-12-18T11:31:58.296Z,72.39
2022-12-18T11:32:58.440Z,72.95
2022-12-18T11:34:27.555Z,74.97
2022-12-18T11:34:59.315Z,74.13
2022-12-18T11:35:58.440Z,76.65
2022-12-18T11:36:58.504Z,74.76
2022-12-18T11:37:58.320Z,74.83
2022-12-18T11:38:58.241Z,76.40
2022-12-18T11:39:58.019Z,77.70
2022-12-18T11:40:58.771Z,77.56
2022-12-18T11:41:59.495Z,76.30
2022-12-18T11:42:58.140Z,76.68
2022-12-18T11:43:58.000Z,77.10
2022-12-18T11:44:58.170Z,76.68
2022-12-18T11:45:58.089Z,76.26
2022-12-18T11:46:58.304Z,76.79
2022-12-18T11:47:58.249Z,76.33
2022-12-18T11:48:58.629Z,75.95
2022-12-18T11:49:57.971Z,76.68
2022-12-18T11:50:58.191Z,77.10
2022-12-18T11:51:58.351Z,77.62
2022-12-18T11:53:01.600Z,77.38
2022-12-18T11:53:58.528Z,76.93
2022-12-18T11:54:57.809Z,75.18
2022-12-18T11:55:58.020Z,76.75
2022-12-18T11:56:57.939Z,76.20
2022-12-18T11:57:58.129Z,76.65
2022-12-18T11:58:57.931Z,76.65
2022-12-18T11:59:57.969Z,75.60
2022-12-18T12:00:57.191Z,76.72
2022-12-18T12:01:58.149Z,76.09
2022-12-18T12:02:57.944Z,76.26
2022-12-18T12:04:00.395Z,77.17
2022-12-18T12:04:58.424Z,76.75
2022-12-18T12:05:58.384Z,77.34
2022-12-18T12:07:02.889Z,77.59
2022-12-18T12:07:58.782Z,78.74
2022-12-18T12:08:58.144Z,78.22
2022-12-18T12:09:59.403Z,79.16
2022-12-18T12:10:58.961Z,79.44
2022-12-18T12:11:58.105Z,77.76
2022-12-18T12:12:58.243Z,78.05
2022-12-18T12:13:58.082Z,75.74
2022-12-18T12:14:58.282Z,75.84
2022-12-18T12:15:59.247Z,76.40
2022-12-18T12:16:58.084Z,77.34
2022-12-18T12:17:58.103Z,76.82
2022-12-18T12:18:57.285Z,76.61
2022-12-18T12:19:57.965Z,77.34
2022-12-18T12:20:58.282Z,77.14
2022-12-18T12:21:58.084Z,78.50
2022-12-18T12:22:57.945Z,77.34
2022-12-18T12:23:57.984Z,78.25
2022-12-18T12:24:57.802Z,78.47
2022-12-18T12:25:59.084Z,79.16
2022-12-18T12:26:58.601Z,78.57
2022-12-18T12:27:58.410Z,80.25
2022-12-18T12:28:58.242Z,80.00
2022-12-18T12:29:58.044Z,80.87
2022-12-18T12:30:57.904Z,78.85
2022-12-18T12:31:58.190Z,76.65
2022-12-18T12:32:57.802Z,77.91
2022-12-18T12:33:57.982Z,77.24
2022-12-18T12:35:00.929Z,75.60
2022-12-18T12:35:57.882Z,76.44
2022-12-18T12:36:58.082Z,76.54
2022-12-18T12:37:58.023Z,76.54
2022-12-18T12:38:57.943Z,75.81
2022-12-18T12:39:57.644Z,75.81
2022-12-18T12:41:02.828Z,76.23
2022-12-18T12:41:57.663Z,77.07
2022-12-18T12:42:58.143Z,76.93
2022-12-18T12:43:58.304Z,76.65
2022-12-18T12:44:57.963Z,77.07
2022-12-18T12:45:57.703Z,77.28
2022-12-18T12:46:57.764Z,75.95
2022-12-18T12:47:57.885Z,77.80
2022-12-18T12:48:57.782Z,77.17
2022-12-18T12:49:58.000Z,76.26
2022-12-18T12:50:58.228Z,77.42
2022-12-18T12:51:57.782Z,77.80
2022-12-18T12:52:57.867Z,75.95